Terminal Aerodrome Forecast
Issued by NWS

Home | Current Version | Previous Version | Text Only | Print | Product List | Glossary On
Versions: 1 2 3 4 5 6 7 8 9 10 11 12 13 14 15 16 17 18 19 20 21 22 23 24 25 26 27 28 29 30 31 32 33 34 35 36
000
FTUS46 KSTO 161151
TAFSMF
TAF
KSMF 161151Z 1612/1712 16011KT P6SM -SHRA BKN030 OVC045
     FM161400 15013G20KT 5SM -SHRA BR OVC025
     FM161600 16016G22KT 6SM -SHRA BR OVC015
     FM162000 16020G27KT 5SM -RA BR OVC025
     FM170200 16032G42KT 6SM -RA BR OVC015 PROB30 1702/1708 2SM
      -TSRA BKN010CB
     FM170800 16030G40KT 4SM -RA BR OVC010
     FM171000 17024G30KT 4SM -RA BR OVC012=

USA.gov is the U.S. government's official web portal to all federal, state and local government web resources and services.